Time;durP1;ratioP1;P1;durP2;ratioP2;P2;SDS_P1;SDS_P2;PMS_P1;PMS_P2;Temp;Humidity;BMP_temperature;BMP_pressure;BME280_temperature;BME280_humidity;BME280_pressure;Samples;Min_cycle;Max_cycle;Signal;HPM_P1;HPM_P2
2021/08/18 00:00:50;;;;;;;35.83;22.00;;;16.30;99.90;;;;;;5075471;28;20308;-78
2021/08/18 00:03:18;;;;;;;37.00;23.23;;;16.30;99.90;;;;;;5084474;28;20218;-79
2021/08/18 00:05:45;;;;;;;36.47;23.53;;;16.40;99.90;;;;;;5076627;28;20192;-78
2021/08/18 00:08:13;;;;;;;36.47;22.40;;;16.30;99.90;;;;;;5079876;28;20202;-79
2021/08/18 00:10:42;;;;;;;34.87;21.70;;;16.40;99.90;;;;;;5082976;28;20772;-78
2021/08/18 00:13:11;;;;;;;38.77;22.77;;;16.40;99.90;;;;;;5090694;28;20226;-77
2021/08/18 00:15:38;;;;;;;36.37;22.37;;;16.40;99.90;;;;;;5083579;28;20203;-78
2021/08/18 00:18:06;;;;;;;38.63;22.40;;;16.40;99.90;;;;;;5076176;28;20204;-80
2021/08/18 00:20:33;;;;;;;37.30;22.00;;;16.40;99.90;;;;;;5077823;28;20199;-78
2021/08/18 00:23:00;;;;;;;41.23;22.87;;;16.40;99.90;;;;;;5076424;28;20226;-76
2021/08/18 00:25:27;;;;;;;41.50;23.70;;;16.40;99.90;;;;;;5075423;28;20306;-77
2021/08/18 00:27:56;;;;;;;40.87;22.67;;;16.40;99.90;;;;;;5079894;28;20286;-78
2021/08/18 00:30:24;;;;;;;38.67;23.17;;;16.40;99.90;;;;;;5079741;28;20198;-77
2021/08/18 00:32:50;;;;;;;41.87;24.13;;;16.40;99.90;;;;;;5085553;28;20207;-77
2021/08/18 00:35:17;;;;;;;39.23;23.17;;;16.30;99.90;;;;;;5097633;28;20184;-78
2021/08/18 00:37:44;;;;;;;41.27;24.40;;;16.30;99.90;;;;;;5096785;28;20196;-77
2021/08/18 00:40:12;;;;;;;43.13;24.40;;;16.30;99.90;;;;;;5097192;28;20212;-76
2021/08/18 00:42:40;;;;;;;42.37;24.67;;;16.30;99.90;;;;;;5100219;28;20213;-78
2021/08/18 00:45:10;;;;;;;43.60;24.83;;;16.30;99.90;;;;;;5099478;28;20231;-77
2021/08/18 00:47:42;;;;;;;45.37;24.13;;;16.30;99.90;;;;;;5103410;28;20195;-78
2021/08/18 00:50:10;;;;;;;45.87;24.93;;;16.30;99.90;;;;;;5100683;28;20234;-78
2021/08/18 00:52:37;;;;;;;43.50;25.13;;;16.30;99.90;;;;;;5097843;28;20191;-76
2021/08/18 00:55:05;;;;;;;42.00;24.50;;;16.30;99.90;;;;;;5096388;28;20192;-77
2021/08/18 00:57:32;;;;;;;48.67;25.73;;;16.20;99.90;;;;;;5099513;28;20204;-76
2021/08/18 01:00:00;;;;;;;52.87;26.97;;;16.30;99.90;;;;;;5100008;28;20191;-78
2021/08/18 01:02:29;;;;;;;47.07;25.87;;;16.30;99.90;;;;;;5099305;28;20194;-77
2021/08/18 01:04:56;;;;;;;42.27;25.80;;;16.30;99.90;;;;;;5100439;28;20295;-76
2021/08/18 01:07:23;;;;;;;47.43;25.73;;;16.30;99.90;;;;;;5097596;28;20560;-76
2021/08/18 01:09:50;;;;;;;41.80;25.70;;;16.30;99.90;;;;;;5089772;28;20241;-79
2021/08/18 01:12:17;;;;;;;47.00;25.53;;;16.20;99.90;;;;;;5080187;28;20205;-79
2021/08/18 01:14:44;;;;;;;45.57;25.80;;;16.20;99.90;;;;;;5076787;28;20286;-79
2021/08/18 01:17:14;;;;;;;50.27;27.57;;;16.30;99.90;;;;;;5079082;28;20226;-78
2021/08/18 01:19:42;;;;;;;48.63;27.00;;;16.30;99.90;;;;;;5074819;28;20200;-79
2021/08/18 01:22:09;;;;;;;45.70;26.37;;;16.20;99.90;;;;;;5078764;28;20717;-79
2021/08/18 01:24:36;;;;;;;45.33;26.70;;;16.30;99.90;;;;;;5084278;28;20271;-76
2021/08/18 01:27:03;;;;;;;49.70;26.93;;;16.20;99.90;;;;;;5085288;28;20234;-78
2021/08/18 01:29:32;;;;;;;51.50;27.67;;;16.20;99.90;;;;;;5080871;28;20203;-78
2021/08/18 01:31:59;;;;;;;49.00;26.73;;;16.20;99.90;;;;;;5080088;28;20250;-77
2021/08/18 01:34:26;;;;;;;50.33;28.47;;;16.20;99.90;;;;;;5095942;28;20649;-77
2021/08/18 01:36:53;;;;;;;51.97;26.90;;;16.20;99.90;;;;;;5094723;28;20612;-78
2021/08/18 01:39:20;;;;;;;52.63;27.80;;;16.20;99.90;;;;;;5097024;28;20245;-78
2021/08/18 01:41:46;;;;;;;52.17;28.10;;;16.20;99.90;;;;;;5094961;28;20195;-76
2021/08/18 01:44:13;;;;;;;46.53;27.77;;;16.20;99.90;;;;;;5096596;28;20245;-77
2021/08/18 01:46:42;;;;;;;50.97;28.37;;;16.30;99.90;;;;;;5093375;28;20231;-76
2021/08/18 01:49:09;;;;;;;49.03;28.17;;;16.30;99.90;;;;;;5094608;28;20282;-77
2021/08/18 01:51:36;;;;;;;56.53;30.90;;;16.30;99.90;;;;;;5096060;28;20286;-77
2021/08/18 01:54:03;;;;;;;55.93;31.13;;;16.40;99.90;;;;;;5094231;28;20290;-77
2021/08/18 01:56:30;;;;;;;56.30;30.37;;;16.30;99.90;;;;;;5096222;28;20252;-80
2021/08/18 01:58:56;;;;;;;52.30;29.93;;;16.30;99.90;;;;;;5094235;28;20294;-77
2021/08/18 02:01:24;;;;;;;63.87;31.73;;;16.30;99.90;;;;;;5095659;28;20281;-76
2021/08/18 02:03:52;;;;;;;55.50;28.87;;;16.30;99.90;;;;;;5094617;28;20195;-77
2021/08/18 02:06:19;;;;;;;54.53;29.70;;;16.30;99.90;;;;;;5095560;28;20285;-78
2021/08/18 02:08:46;;;;;;;52.47;29.03;;;16.30;99.90;;;;;;5081758;28;20225;-79
2021/08/18 02:11:13;;;;;;;59.33;29.93;;;16.40;99.90;;;;;;5094283;28;20248;-78
2021/08/18 02:13:40;;;;;;;56.33;30.03;;;16.40;99.90;;;;;;5092469;28;20285;-77
2021/08/18 02:16:07;;;;;;;53.00;29.83;;;16.40;99.90;;;;;;5092531;28;20676;-76
2021/08/18 02:18:34;;;;;;;59.97;30.30;;;16.30;99.90;;;;;;5092416;28;20294;-77
2021/08/18 02:21:02;;;;;;;60.67;30.73;;;16.40;99.90;;;;;;5092092;28;20234;-78
2021/08/18 02:23:29;;;;;;;58.73;30.20;;;16.40;99.90;;;;;;5089329;28;20277;-78
2021/08/18 02:25:56;;;;;;;56.10;29.60;;;16.40;99.90;;;;;;5092351;28;20272;-77
2021/08/18 02:28:23;;;;;;;59.70;30.13;;;16.40;99.90;;;;;;5092595;28;20199;-77
2021/08/18 02:30:51;;;;;;;55.83;30.33;;;16.30;99.90;;;;;;5092377;28;20203;-79
2021/08/18 02:33:18;;;;;;;57.60;30.90;;;16.30;99.90;;;;;;5092273;28;20245;-78
2021/08/18 02:35:45;;;;;;;60.93;32.37;;;16.30;99.90;;;;;;5092654;28;20301;-79
2021/08/18 02:38:13;;;;;;;61.00;31.30;;;16.30;99.90;;;;;;5096146;28;20287;-77
2021/08/18 02:40:40;;;;;;;61.27;31.57;;;16.30;99.90;;;;;;5095752;28;20199;-78
2021/08/18 02:43:07;;;;;;;64.77;30.53;;;16.30;99.90;;;;;;5096109;28;20210;-79
2021/08/18 02:45:34;;;;;;;59.33;31.17;;;16.30;99.90;;;;;;5095597;28;20309;-78
2021/08/18 02:48:03;;;;;;;58.70;29.67;;;16.30;99.90;;;;;;5095741;28;20301;-78
2021/08/18 02:50:32;;;;;;;59.07;30.03;;;16.30;99.90;;;;;;5095311;28;20568;-78
2021/08/18 02:52:59;;;;;;;66.13;31.50;;;16.40;99.90;;;;;;5095769;28;20286;-76
2021/08/18 02:55:29;;;;;;;65.70;31.60;;;16.30;99.90;;;;;;5095388;28;20286;-78
2021/08/18 02:57:56;;;;;;;66.37;32.40;;;16.40;99.90;;;;;;5082080;28;20199;-77
2021/08/18 03:00:24;;;;;;;66.30;31.90;;;16.40;99.90;;;;;;5095460;28;20250;-77
2021/08/18 03:02:51;;;;;;;68.37;30.70;;;16.40;99.90;;;;;;5095243;28;20264;-78
2021/08/18 03:05:19;;;;;;;60.27;31.20;;;16.40;99.90;;;;;;5095207;28;20234;-77
2021/08/18 03:07:46;;;;;;;77.63;32.23;;;16.40;99.90;;;;;;5094834;28;20538;-79
2021/08/18 03:10:13;;;;;;;72.63;32.97;;;16.40;99.90;;;;;;5095149;28;20664;-77
2021/08/18 03:12:41;;;;;;;73.37;33.63;;;16.50;99.90;;;;;;5095417;28;20205;-78
2021/08/18 03:15:09;;;;;;;72.17;32.73;;;16.50;99.90;;;;;;5095257;28;20268;-77
2021/08/18 03:17:36;;;;;;;73.47;32.80;;;16.50;99.90;;;;;;5094876;28;20572;-79
2021/08/18 03:20:06;;;;;;;68.97;32.20;;;16.40;99.90;;;;;;5100856;28;20230;-77
2021/08/18 03:22:33;;;;;;;75.23;32.20;;;16.40;99.90;;;;;;5102424;28;20237;-79
2021/08/18 03:25:00;;;;;;;71.60;32.47;;;16.50;99.90;;;;;;5094315;28;20305;-77
2021/08/18 03:27:27;;;;;;;67.47;30.97;;;16.40;99.90;;;;;;5094631;28;20233;-77
2021/08/18 03:29:55;;;;;;;64.53;31.93;;;16.50;99.90;;;;;;5094878;28;20229;-78
2021/08/18 03:32:22;;;;;;;70.60;32.47;;;16.40;99.90;;;;;;5095133;28;20414;-77
2021/08/18 03:34:49;;;;;;;66.53;32.07;;;16.40;99.90;;;;;;5094787;28;20294;-77
2021/08/18 03:37:16;;;;;;;74.00;31.83;;;16.30;99.90;;;;;;5094138;28;20286;-78
2021/08/18 03:39:43;;;;;;;72.77;32.33;;;16.30;99.90;;;;;;5091416;28;20646;-76
2021/08/18 03:42:10;;;;;;;77.10;32.27;;;16.40;99.90;;;;;;5094540;28;20203;-78
2021/08/18 03:44:36;;;;;;;71.07;31.47;;;16.40;99.90;;;;;;5094696;28;20329;-77
2021/08/18 03:47:05;;;;;;;85.40;33.83;;;16.40;99.90;;;;;;5093653;28;20202;-79
2021/08/18 03:49:32;;;;;;;76.30;32.93;;;16.50;99.90;;;;;;5094345;28;20232;-78
2021/08/18 03:51:59;;;;;;;72.63;32.13;;;16.50;99.90;;;;;;5094455;28;20199;-77
2021/08/18 03:54:26;;;;;;;76.60;31.80;;;16.50;99.90;;;;;;5094123;28;20201;-79
2021/08/18 03:56:53;;;;;;;75.73;32.33;;;16.40;99.90;;;;;;5094367;28;20237;-78
2021/08/18 03:59:20;;;;;;;76.80;32.30;;;16.40;99.90;;;;;;5094129;28;20280;-79
2021/08/18 04:01:47;;;;;;;78.00;32.40;;;16.40;99.90;;;;;;5093790;28;20222;-76
2021/08/18 04:04:15;;;;;;;65.00;29.70;;;16.40;99.90;;;;;;5093960;28;20278;-77
2021/08/18 04:06:42;;;;;;;66.17;29.47;;;16.30;99.90;;;;;;5093861;28;20314;-76
2021/08/18 04:09:09;;;;;;;73.40;30.80;;;16.30;99.90;;;;;;5093331;28;20653;-77
2021/08/18 04:11:36;;;;;;;66.50;30.40;;;16.30;99.90;;;;;;5093864;28;20249;-78
2021/08/18 04:14:02;;;;;;;65.77;29.33;;;16.30;99.90;;;;;;5093867;28;20612;-77
2021/08/18 04:16:29;;;;;;;78.00;30.93;;;16.30;99.90;;;;;;5094013;28;20282;-77
2021/08/18 04:18:56;;;;;;;71.30;30.13;;;16.30;99.90;;;;;;5093417;28;20226;-76
2021/08/18 04:21:25;;;;;;;65.37;29.47;;;16.30;99.90;;;;;;5093784;28;20709;-79
2021/08/18 04:23:51;;;;;;;72.97;29.93;;;16.30;99.90;;;;;;5093866;28;20210;-78
2021/08/18 04:26:18;;;;;;;78.47;30.87;;;16.20;99.90;;;;;;5093275;28;20249;-77
2021/08/18 04:28:45;;;;;;;73.17;31.07;;;16.30;99.90;;;;;;5093726;28;20224;-75
2021/08/18 04:31:12;;;;;;;72.27;31.20;;;16.30;99.90;;;;;;5093461;28;20301;-78
2021/08/18 04:33:39;;;;;;;77.27;32.03;;;16.30;99.90;;;;;;5093525;28;20207;-78
2021/08/18 04:36:06;;;;;;;71.33;32.20;;;16.30;99.90;;;;;;5093825;28;20230;-77
2021/08/18 04:38:34;;;;;;;73.77;31.70;;;16.30;99.90;;;;;;5093309;28;20199;-76
2021/08/18 04:41:01;;;;;;;71.97;30.43;;;16.30;99.90;;;;;;5093437;28;20669;-78
2021/08/18 04:43:28;;;;;;;75.50;30.87;;;16.30;99.90;;;;;;5093332;28;20630;-78
2021/08/18 04:45:54;;;;;;;70.87;30.87;;;16.30;99.90;;;;;;5093686;28;20250;-78
2021/08/18 04:48:21;;;;;;;77.27;31.17;;;16.30;99.90;;;;;;5093534;28;20225;-78
2021/08/18 04:50:48;;;;;;;73.60;31.00;;;16.30;99.90;;;;;;5093506;28;20258;-78
2021/08/18 04:53:15;;;;;;;68.77;30.43;;;16.30;99.90;;;;;;5093458;28;20206;-77
2021/08/18 04:55:43;;;;;;;73.50;31.20;;;16.30;99.90;;;;;;5093572;28;20252;-77
2021/08/18 04:58:11;;;;;;;69.83;30.27;;;16.30;99.90;;;;;;5093336;28;20281;-77
2021/08/18 05:00:38;;;;;;;63.40;28.60;;;16.30;99.90;;;;;;5092905;28;20274;-77
2021/08/18 05:03:05;;;;;;;68.57;30.37;;;16.20;99.90;;;;;;5093056;28;20632;-79
2021/08/18 05:05:32;;;;;;;64.17;30.13;;;16.20;99.90;;;;;;5092842;28;20223;-77
2021/08/18 05:08:01;;;;;;;71.63;30.23;;;16.20;99.90;;;;;;5092818;28;20226;-77
2021/08/18 05:10:28;;;;;;;62.30;28.90;;;16.30;99.90;;;;;;5092654;28;20657;-78
2021/08/18 05:12:56;;;;;;;61.47;29.00;;;16.30;99.90;;;;;;5093049;28;20229;-77
2021/08/18 05:15:24;;;;;;;56.93;28.33;;;16.30;99.90;;;;;;5091886;28;20238;-79
2021/08/18 05:17:51;;;;;;;62.20;27.97;;;16.40;99.90;;;;;;5092637;28;20206;-78
2021/08/18 05:20:18;;;;;;;59.73;27.03;;;16.30;99.90;;;;;;5092676;28;20294;-77
2021/08/18 05:22:45;;;;;;;59.87;27.00;;;16.40;99.90;;;;;;5091332;28;20613;-77
2021/08/18 05:25:14;;;;;;;60.17;28.20;;;16.50;99.90;;;;;;5092338;28;20381;-77
2021/08/18 05:27:41;;;;;;;61.53;28.30;;;16.50;99.90;;;;;;5092387;28;20230;-76
2021/08/18 05:30:11;;;;;;;62.30;27.43;;;16.60;99.90;;;;;;5089504;28;20281;-76
2021/08/18 05:32:39;;;;;;;60.00;27.23;;;16.50;99.90;;;;;;5092304;28;20232;-79
2021/08/18 05:35:09;;;;;;;56.30;26.93;;;16.50;99.90;;;;;;5092386;28;20310;-78
2021/08/18 05:37:36;;;;;;;57.27;27.10;;;16.60;99.90;;;;;;5093394;28;20202;-78
2021/08/18 05:40:03;;;;;;;56.60;27.07;;;16.60;99.90;;;;;;5092695;28;20289;-78
2021/08/18 05:42:30;;;;;;;56.87;26.90;;;16.60;99.90;;;;;;5092763;28;20349;-77
2021/08/18 05:44:57;;;;;;;50.80;26.60;;;16.70;99.90;;;;;;5092103;28;20230;-78
2021/08/18 05:47:25;;;;;;;52.47;26.10;;;16.70;99.90;;;;;;5092716;28;20683;-78
2021/08/18 05:49:52;;;;;;;55.07;26.70;;;16.70;99.90;;;;;;5092510;28;20299;-77
2021/08/18 05:52:19;;;;;;;53.03;27.00;;;16.80;99.90;;;;;;5092787;28;20214;-77
2021/08/18 05:54:46;;;;;;;51.23;26.53;;;16.80;99.90;;;;;;5092659;28;20289;-78
2021/08/18 05:57:13;;;;;;;52.47;24.83;;;16.80;99.90;;;;;;5092397;28;20226;-78
2021/08/18 05:59:40;;;;;;;48.27;25.93;;;16.80;99.90;;;;;;5092659;28;20285;-76
2021/08/18 06:02:07;;;;;;;51.20;25.43;;;16.80;99.90;;;;;;5092306;28;20202;-78
2021/08/18 06:04:36;;;;;;;45.77;25.10;;;16.80;99.90;;;;;;5091973;28;20285;-78
2021/08/18 06:07:03;;;;;;;50.73;24.67;;;16.80;99.90;;;;;;5092130;28;20622;-77
2021/08/18 06:09:32;;;;;;;50.13;24.80;;;16.80;99.90;;;;;;5092216;28;20701;-78
2021/08/18 06:11:59;;;;;;;46.60;23.97;;;16.90;99.90;;;;;;5095007;28;20206;-78
2021/08/18 06:14:26;;;;;;;48.20;23.97;;;16.90;99.90;;;;;;5095733;28;20289;-78
2021/08/18 06:16:53;;;;;;;46.53;24.97;;;17.10;99.90;;;;;;5095579;28;20234;-79
2021/08/18 06:19:20;;;;;;;48.37;24.37;;;17.20;99.90;;;;;;5093974;28;20290;-78
2021/08/18 06:21:48;;;;;;;43.40;24.03;;;17.20;99.90;;;;;;5099103;28;20230;-78
2021/08/18 06:24:26;;;;;;;39.73;23.33;;;17.20;99.90;;;;;;5102632;28;20221;-78
2021/08/18 06:26:53;;;;;;;45.40;23.53;;;17.30;99.90;;;;;;5095973;28;20203;-78
2021/08/18 06:29:20;;;;;;;45.03;23.47;;;17.40;99.90;;;;;;5095635;28;20637;-77
2021/08/18 06:31:47;;;;;;;41.47;23.23;;;17.40;99.90;;;;;;5095856;28;20285;-78
2021/08/18 06:34:14;;;;;;;37.87;23.37;;;17.50;99.90;;;;;;5096071;28;20214;-78
2021/08/18 06:36:41;;;;;;;39.40;23.30;;;17.60;99.90;;;;;;5096027;28;20344;-79
2021/08/18 06:39:09;;;;;;;33.77;21.27;;;17.80;99.90;;;;;;5094835;28;20653;-77
2021/08/18 06:41:36;;;;;;;38.93;23.17;;;17.90;99.90;;;;;;5095695;28;20282;-77
2021/08/18 06:44:03;;;;;;;42.43;22.43;;;18.00;99.90;;;;;;5093653;28;20281;-79
2021/08/18 06:46:31;;;;;;;39.33;21.80;;;18.10;99.90;;;;;;5095408;28;20317;-79
2021/08/18 06:48:57;;;;;;;39.30;21.93;;;18.10;99.90;;;;;;5095864;28;20617;-79
2021/08/18 06:51:24;;;;;;;38.90;21.43;;;18.10;99.90;;;;;;5095913;28;20253;-77
2021/08/18 06:53:51;;;;;;;30.00;20.57;;;18.10;99.90;;;;;;5095246;28;20630;-80
2021/08/18 06:56:19;;;;;;;30.97;21.43;;;18.10;99.90;;;;;;5095320;28;20203;-77
2021/08/18 06:58:46;;;;;;;35.70;20.57;;;18.20;99.90;;;;;;5095379;28;20229;-76
2021/08/18 07:01:13;;;;;;;35.27;20.40;;;18.30;99.90;;;;;;5095567;28;20238;-76
2021/08/18 07:03:40;;;;;;;30.07;19.40;;;18.50;99.90;;;;;;5095529;28;20288;-77
2021/08/18 07:06:07;;;;;;;27.20;18.60;;;18.60;99.90;;;;;;5095172;28;20269;-77
2021/08/18 07:08:34;;;;;;;30.67;18.00;;;18.60;99.90;;;;;;5095325;28;20286;-76
2021/08/18 07:11:00;;;;;;;27.77;17.50;;;18.60;99.90;;;;;;5095323;28;20281;-80
2021/08/18 07:13:29;;;;;;;25.43;17.00;;;18.70;99.90;;;;;;5093162;28;20199;-78
2021/08/18 07:15:55;;;;;;;26.23;17.07;;;18.80;99.90;;;;;;5095650;28;20207;-78
2021/08/18 07:18:23;;;;;;;21.67;15.90;;;18.70;99.90;;;;;;5084991;28;20221;-78
2021/08/18 07:20:50;;;;;;;24.30;16.17;;;18.70;99.90;;;;;;5095248;28;20285;-77
2021/08/18 07:23:17;;;;;;;21.47;16.00;;;18.60;99.90;;;;;;5095445;28;20289;-77
2021/08/18 07:25:44;;;;;;;25.87;15.90;;;18.70;99.90;;;;;;5094628;28;20250;-77
2021/08/18 07:28:11;;;;;;;22.80;15.40;;;18.70;99.90;;;;;;5095290;28;20301;-77
2021/08/18 07:30:40;;;;;;;23.13;15.13;;;18.70;99.90;;;;;;5094727;28;20634;-77
2021/08/18 07:33:06;;;;;;;21.93;15.57;;;18.60;99.90;;;;;;5094756;28;20660;-77
2021/08/18 07:35:33;;;;;;;21.30;15.53;;;18.70;99.90;;;;;;5095566;28;20587;-78
2021/08/18 07:38:00;;;;;;;23.87;15.07;;;18.70;99.90;;;;;;5095021;28;20286;-78
2021/08/18 07:40:27;;;;;;;21.57;15.17;;;18.70;99.90;;;;;;5092389;28;20224;-77
2021/08/18 07:42:55;;;;;;;21.70;15.50;;;18.80;99.90;;;;;;5086283;28;20195;-76
2021/08/18 07:45:22;;;;;;;22.60;15.13;;;18.70;99.90;;;;;;5091674;28;20199;-77
2021/08/18 07:47:50;;;;;;;20.13;15.77;;;18.70;99.90;;;;;;5094242;28;20309;-77
2021/08/18 07:50:17;;;;;;;19.73;14.97;;;18.80;99.90;;;;;;5094340;28;20668;-77
2021/08/18 07:52:44;;;;;;;21.43;15.23;;;18.90;99.90;;;;;;5094109;28;20249;-78
2021/08/18 07:55:12;;;;;;;21.37;15.17;;;19.00;99.90;;;;;;5087008;28;20672;-78
2021/08/18 07:57:39;;;;;;;17.03;14.13;;;19.20;99.90;;;;;;5093437;28;20213;-78
2021/08/18 08:00:07;;;;;;;20.83;14.67;;;19.30;99.90;;;;;;5092945;28;20238;-77
2021/08/18 08:02:34;;;;;;;17.10;14.23;;;19.40;99.90;;;;;;5093625;28;20282;-78
2021/08/18 08:05:07;;;;;;;19.67;15.10;;;19.50;99.90;;;;;;5093304;28;20287;-79
2021/08/18 08:07:34;;;;;;;18.53;15.43;;;19.70;99.90;;;;;;5092589;28;20215;-79
2021/08/18 08:10:01;;;;;;;22.10;15.63;;;19.70;99.90;;;;;;5094227;28;20716;-77
2021/08/18 08:12:28;;;;;;;22.30;15.67;;;19.90;99.90;;;;;;5093282;28;20226;-77
2021/08/18 08:14:55;;;;;;;20.60;16.00;;;20.00;99.90;;;;;;5093630;28;20290;-77
2021/08/18 08:17:22;;;;;;;22.03;15.93;;;20.20;99.90;;;;;;5093839;28;20207;-77
2021/08/18 08:19:49;;;;;;;21.83;15.63;;;20.30;99.90;;;;;;5093723;28;20202;-77
2021/08/18 08:22:17;;;;;;;19.30;15.57;;;20.50;99.90;;;;;;5093737;28;20293;-76
2021/08/18 08:24:44;;;;;;;19.20;15.30;;;20.50;99.90;;;;;;5091716;28;20557;-79
2021/08/18 08:27:11;;;;;;;20.73;15.63;;;20.70;99.90;;;;;;5092905;28;20242;-78
2021/08/18 08:29:38;;;;;;;22.40;17.43;;;20.70;99.90;;;;;;5093382;28;20282;-78
2021/08/18 08:32:06;;;;;;;22.97;17.77;;;20.60;99.90;;;;;;5093314;28;20282;-76
2021/08/18 08:34:33;;;;;;;21.80;17.97;;;20.60;99.90;;;;;;5092514;28;20289;-77
2021/08/18 08:37:00;;;;;;;24.43;18.67;;;20.80;99.90;;;;;;5093078;28;20236;-78
2021/08/18 08:39:28;;;;;;;26.20;18.40;;;21.00;99.90;;;;;;5093120;28;20241;-75
2021/08/18 08:41:55;;;;;;;21.13;18.33;;;21.10;99.90;;;;;;5092376;28;20306;-77
2021/08/18 08:44:24;;;;;;;22.83;18.83;;;21.10;99.90;;;;;;5093478;28;20194;-77
2021/08/18 08:46:52;;;;;;;18.57;16.37;;;21.10;99.90;;;;;;5092932;28;20710;-78
2021/08/18 08:49:22;;;;;;;23.10;17.97;;;21.00;99.90;;;;;;5093007;28;20282;-76
2021/08/18 08:51:51;;;;;;;24.70;17.10;;;20.90;99.90;;;;;;5092811;28;20581;-77
2021/08/18 08:54:19;;;;;;;25.47;16.87;;;20.80;99.90;;;;;;5092241;28;20248;-77
2021/08/18 08:56:47;;;;;;;24.60;17.10;;;20.80;99.90;;;;;;5092047;28;20904;-77
2021/08/18 08:59:14;;;;;;;20.27;16.10;;;21.00;99.90;;;;;;5090892;28;20198;-77
2021/08/18 09:02:06;;;;;;;21.57;15.17;;;21.00;99.90;;;;;;5092920;28;20281;-76
2021/08/18 09:04:35;;;;;;;19.00;15.23;;;20.70;99.90;;;;;;5088005;28;20617;-77
2021/08/18 09:07:13;;;;;;;22.17;14.90;;;20.60;99.90;;;;;;5092077;28;20257;-79
2021/08/18 09:09:42;;;;;;;19.30;15.17;;;20.60;99.90;;;;;;5092530;28;20641;-76
2021/08/18 09:12:13;;;;;;;22.10;14.63;;;20.70;99.90;;;;;;5092292;28;20199;-77
2021/08/18 09:14:41;;;;;;;17.67;14.17;;;21.00;99.90;;;;;;5091660;28;20716;-78
2021/08/18 09:17:28;;;;;;;18.93;14.03;;;21.40;99.90;;;;;;5091928;28;20289;-79
2021/08/18 09:19:59;;;;;;;18.40;13.90;;;21.70;99.90;;;;;;5088101;28;20206;-77
2021/08/18 09:22:26;;;;;;;21.23;13.70;;;21.80;99.90;;;;;;5091082;28;20195;-77
2021/08/18 09:25:16;;;;;;;18.37;13.27;;;21.90;99.90;;;;;;5092312;28;20282;-79
2021/08/18 09:27:46;;;;;;;16.63;13.27;;;21.80;99.90;;;;;;5090806;28;20669;-80
2021/08/18 09:30:25;;;;;;;16.05;12.88;;;21.80;99.90;;;;;;5090809;28;20249;-78
2021/08/18 09:32:53;;;;;;;17.13;13.30;;;21.90;99.90;;;;;;5090633;28;20226;-77
2021/08/18 09:35:22;;;;;;;16.33;13.53;;;22.20;99.90;;;;;;5093509;28;20213;-80
2021/08/18 09:38:00;;;;;;;21.87;13.13;;;22.30;99.90;;;;;;5092717;28;20209;-78
2021/08/18 09:40:30;;;;;;;18.33;13.10;;;22.30;99.90;;;;;;5092314;28;20281;-78
2021/08/18 09:43:10;;;;;;;15.10;12.73;;;22.60;99.90;;;;;;5092820;28;20231;-77
2021/08/18 09:45:39;;;;;;;14.43;11.15;;;24.50;99.90;;;;;;5092843;28;20671;-78
2021/08/18 09:48:08;;;;;;;12.38;11.02;;;25.70;99.90;;;;;;5096728;28;20226;-77
2021/08/18 09:50:44;;;;;;;13.80;10.43;;;25.50;99.90;;;;;;5096888;28;20199;-77
2021/08/18 09:53:14;;;;;;;13.57;9.52;;;26.00;99.90;;;;;;5096287;28;20286;-78
2021/08/18 09:55:49;;;;;;;14.60;10.13;;;26.70;99.90;;;;;;5096421;28;20191;-78
2021/08/18 09:58:23;;;;;;;11.63;9.88;;;26.70;99.90;;;;;;5095591;28;20218;-77
2021/08/18 10:00:50;;;;;;;13.07;10.52;;;26.40;99.90;;;;;;5095574;28;20587;-79
2021/08/18 10:03:18;;;;;;;11.95;10.20;;;26.20;99.90;;;;;;5096871;28;20226;-78
2021/08/18 10:05:45;;;;;;;12.02;10.15;;;26.30;99.90;;;;;;5096912;28;20288;-78
2021/08/18 10:08:13;;;;;;;11.48;9.73;;;26.20;99.90;;;;;;5095686;28;20207;-77
2021/08/18 10:10:42;;;;;;;10.02;9.00;;;25.80;99.90;;;;;;5095620;28;20243;-78
2021/08/18 10:13:10;;;;;;;11.75;8.38;;;25.50;99.90;;;;;;5092234;28;20195;-78
2021/08/18 10:15:39;;;;;;;10.30;7.40;;;25.20;99.90;;;;;;5095060;28;20302;-77
2021/08/18 10:18:08;;;;;;;11.38;7.75;;;25.10;99.90;;;;;;5096598;28;20648;-80
2021/08/18 10:20:35;;;;;;;8.30;7.47;;;24.90;99.90;;;;;;5096205;28;20688;-77
2021/08/18 10:23:04;;;;;;;13.25;7.57;;;24.80;99.90;;;;;;5096452;28;20275;-78
2021/08/18 10:25:40;;;;;;;11.93;7.20;;;24.90;99.90;;;;;;5093270;28;20621;-79
2021/08/18 10:28:08;;;;;;;11.52;7.25;;;25.50;99.90;;;;;;5096100;28;20249;-78
2021/08/18 10:30:48;;;;;;;8.20;7.40;;;25.70;99.90;;;;;;5095545;28;20282;-77
2021/08/18 10:34:00;;;;;;;9.23;8.38;;;25.60;99.90;;;;;;5093850;28;20286;-78
2021/08/18 10:37:04;;;;;;;9.90;8.90;;;25.70;99.90;;;;;;5045906;28;20189;-78
2021/08/18 10:39:37;;;;;;;11.45;10.02;;;25.50;99.90;;;;;;5092615;28;20183;-78
2021/08/18 10:42:07;;;;;;;12.25;10.98;;;24.80;99.90;;;;;;5095988;28;20256;-77
2021/08/18 10:44:39;;;;;;;13.63;11.38;;;24.40;99.90;;;;;;5094878;28;20619;-77
2021/08/18 10:47:22;;;;;;;14.98;11.23;;;24.30;99.90;;;;;;5092970;28;20298;-77
2021/08/18 10:49:50;;;;;;;13.50;10.10;;;24.30;99.90;;;;;;5095115;28;20309;-77
2021/08/18 10:52:49;;;;;;;12.90;10.25;;;24.60;99.90;;;;;;5091271;28;20233;-76
2021/08/18 10:55:18;;;;;;;12.98;10.45;;;24.90;99.90;;;;;;5079246;28;20207;-76
2021/08/18 10:57:49;;;;;;;12.27;10.95;;;24.60;99.90;;;;;;5095068;28;20286;-79
2021/08/18 11:00:22;;;;;;;13.25;10.32;;;24.30;99.90;;;;;;5092223;28;20700;-77
2021/08/18 11:02:56;;;;;;;13.32;10.68;;;23.90;99.90;;;;;;5090981;28;20211;-77
2021/08/18 11:05:25;;;;;;;11.88;10.63;;;23.60;99.90;;;;;;5094904;28;20194;-77
2021/08/18 11:08:17;;;;;;;11.40;9.98;;;23.20;99.90;;;;;;5094752;28;20231;-77
2021/08/18 11:11:15;;;;;;;13.35;9.93;;;23.40;99.90;;;;;;5093650;28;20223;-76
2021/08/18 11:13:44;;;;;;;12.48;10.07;;;23.60;99.90;;;;;;5088139;28;20256;-79
2021/08/18 11:16:13;;;;;;;12.10;9.95;;;24.00;99.90;;;;;;5089035;28;20195;-78
2021/08/18 11:18:49;;;;;;;14.27;10.10;;;24.10;99.90;;;;;;5089010;28;20284;-78
2021/08/18 11:21:22;;;;;;;10.73;9.57;;;24.20;99.90;;;;;;5092030;28;20193;-76
2021/08/18 11:23:51;;;;;;;13.02;10.32;;;24.10;99.90;;;;;;5094239;28;20289;-77
2021/08/18 11:26:20;;;;;;;12.40;9.85;;;24.20;99.90;;;;;;5094358;28;20289;-78
2021/08/18 11:28:59;;;;;;;11.27;9.05;;;24.30;99.90;;;;;;5094175;28;20310;-79
2021/08/18 11:31:32;;;;;;;9.95;9.00;;;24.60;99.90;;;;;;5089840;28;20199;-78
2021/08/18 11:34:00;;;;;;;11.88;8.00;;;24.70;99.90;;;;;;5085759;28;20203;-79
2021/08/18 11:36:27;;;;;;;8.80;8.00;;;24.50;99.90;;;;;;5078677;28;20198;-78
2021/08/18 11:38:59;;;;;;;9.57;7.05;;;24.60;99.90;;;;;;5086764;28;20244;-79
2021/08/18 11:41:36;;;;;;;8.88;7.15;;;24.80;99.90;;;;;;5091840;28;20645;-78
2021/08/18 11:44:03;;;;;;;9.93;7.05;;;24.90;99.90;;;;;;5092080;28;20274;-79
2021/08/18 11:46:31;;;;;;;7.97;7.05;;;24.90;99.90;;;;;;5088525;28;20751;-78
2021/08/18 11:49:10;;;;;;;9.23;8.05;;;24.70;99.90;;;;;;5089059;28;20353;-79
2021/08/18 11:51:38;;;;;;;8.38;7.57;;;24.40;99.90;;;;;;5092301;28;20548;-77
2021/08/18 11:54:08;;;;;;;9.20;8.00;;;24.10;99.90;;;;;;5088985;28;20480;-79
2021/08/18 11:56:35;;;;;;;11.02;8.20;;;23.70;99.90;;;;;;5090376;28;20202;-80
2021/08/18 11:59:06;;;;;;;9.05;8.15;;;23.50;99.90;;;;;;5092924;28;20206;-78
2021/08/18 12:01:34;;;;;;;8.00;7.20;;;23.40;99.90;;;;;;5093316;28;20226;-79
2021/08/18 12:04:02;;;;;;;8.93;7.80;;;23.70;99.90;;;;;;5091938;28;20913;-77
2021/08/18 12:06:33;;;;;;;10.77;8.10;;;23.80;99.90;;;;;;5093468;28;20203;-77
2021/08/18 12:09:03;;;;;;;8.82;8.02;;;23.90;99.90;;;;;;5085583;28;20617;-78
2021/08/18 12:11:35;;;;;;;8.93;7.80;;;24.00;99.90;;;;;;5090398;28;20252;-78
2021/08/18 12:14:11;;;;;;;11.25;8.50;;;23.90;99.90;;;;;;5089768;28;20621;-77
2021/08/18 12:16:38;;;;;;;11.85;8.27;;;24.10;99.90;;;;;;5089498;28;20213;-78
2021/08/18 12:19:22;;;;;;;10.77;8.07;;;24.10;99.90;;;;;;5080368;28;20203;-78
2021/08/18 12:22:13;;;;;;;8.95;8.02;;;24.30;99.90;;;;;;5088712;28;20228;-78
2021/08/18 12:24:41;;;;;;;14.40;8.70;;;24.30;99.90;;;;;;5084572;28;20646;-78
2021/08/18 12:27:10;;;;;;;10.32;7.75;;;24.30;99.90;;;;;;5081347;28;20199;-78
2021/08/18 12:29:38;;;;;;;7.80;7.00;;;24.30;99.90;;;;;;5085101;28;20286;-78
2021/08/18 12:32:07;;;;;;;12.65;7.50;;;24.30;99.90;;;;;;5088655;28;20199;-78
2021/08/18 12:34:40;;;;;;;7.82;6.47;;;24.30;99.90;;;;;;5095004;28;20269;-78
2021/08/18 12:37:11;;;;;;;7.35;6.65;;;24.60;99.90;;;;;;5092705;28;20203;-78